sensor_id;sensor_type;location;lat;lon;timestamp;pressure;altitude;pressure_sealevel;temperature;humidity
19831;BME280;10076;52.008;4.708;2023-08-17T00:01:44;102102.03;;;21.14;100.00
19831;BME280;10076;52.008;4.708;2023-08-17T00:04:09;102101.91;;;20.96;100.00
19831;BME280;10076;52.008;4.708;2023-08-17T00:06:35;102105.59;;;21.05;100.00
19831;BME280;10076;52.008;4.708;2023-08-17T00:09:00;102106.72;;;20.93;100.00
19831;BME280;10076;52.008;4.708;2023-08-17T00:11:26;102109.81;;;20.98;100.00
19831;BME280;10076;52.008;4.708;2023-08-17T00:13:51;102113.22;;;21.00;100.00
19831;BME280;10076;52.008;4.708;2023-08-17T00:16:17;102108.56;;;21.11;100.00
19831;BME280;10076;52.008;4.708;2023-08-17T00:18:42;102115.59;;;21.12;100.00
19831;BME280;10076;52.008;4.708;2023-08-17T00:21:08;102121.28;;;21.09;100.00
19831;BME280;10076;52.008;4.708;2023-08-17T00:23:33;102105.88;;;21.11;100.00
19831;BME280;10076;52.008;4.708;2023-08-17T00:25:59;102115.19;;;21.07;100.00
19831;BME280;10076;52.008;4.708;2023-08-17T00:28:25;102110.94;;;21.05;100.00
19831;BME280;10076;52.008;4.708;2023-08-17T00:30:50;102110.13;;;21.04;100.00
19831;BME280;10076;52.008;4.708;2023-08-17T00:33:16;102107.44;;;20.95;100.00
19831;BME280;10076;52.008;4.708;2023-08-17T00:35:41;102115.91;;;21.09;100.00
19831;BME280;10076;52.008;4.708;2023-08-17T00:38:06;102123.41;;;21.06;100.00
19831;BME280;10076;52.008;4.708;2023-08-17T00:40:32;102119.88;;;21.05;100.00
19831;BME280;10076;52.008;4.708;2023-08-17T00:42:57;102118.84;;;21.16;100.00
19831;BME280;10076;52.008;4.708;2023-08-17T00:45:23;102112.50;;;21.17;100.00
19831;BME280;10076;52.008;4.708;2023-08-17T00:47:49;102111.88;;;21.32;100.00
19831;BME280;10076;52.008;4.708;2023-08-17T00:50:14;102114.91;;;21.20;100.00
19831;BME280;10076;52.008;4.708;2023-08-17T00:52:41;102120.41;;;21.09;100.00
19831;BME280;10076;52.008;4.708;2023-08-17T00:55:08;102102.47;;;21.09;100.00
19831;BME280;10076;52.008;4.708;2023-08-17T00:57:35;102095.88;;;20.85;100.00
19831;BME280;10076;52.008;4.708;2023-08-17T01:00:01;102091.16;;;21.06;100.00
19831;BME280;10076;52.008;4.708;2023-08-17T01:02:26;102094.41;;;21.09;100.00
19831;BME280;10076;52.008;4.708;2023-08-17T01:04:52;102099.50;;;21.03;100.00
19831;BME280;10076;52.008;4.708;2023-08-17T01:07:18;102095.84;;;20.94;100.00
19831;BME280;10076;52.008;4.708;2023-08-17T01:09:43;102106.56;;;20.94;100.00
19831;BME280;10076;52.008;4.708;2023-08-17T01:12:21;102104.34;;;20.90;100.00
19831;BME280;10076;52.008;4.708;2023-08-17T01:15:05;102099.97;;;20.89;100.00
19831;BME280;10076;52.008;4.708;2023-08-17T01:17:54;102105.75;;;20.84;100.00
19831;BME280;10076;52.008;4.708;2023-08-17T01:20:22;102104.06;;;20.74;100.00
19831;BME280;10076;52.008;4.708;2023-08-17T01:22:49;102109.88;;;20.79;100.00
19831;BME280;10076;52.008;4.708;2023-08-17T01:25:15;102107.31;;;20.78;100.00
19831;BME280;10076;52.008;4.708;2023-08-17T01:27:43;102101.38;;;20.74;100.00
19831;BME280;10076;52.008;4.708;2023-08-17T01:30:09;102100.81;;;20.80;100.00
19831;BME280;10076;52.008;4.708;2023-08-17T01:32:50;102105.50;;;20.78;100.00
19831;BME280;10076;52.008;4.708;2023-08-17T01:37:50;102105.59;;;20.67;100.00
19831;BME280;10076;52.008;4.708;2023-08-17T01:40:16;102112.38;;;20.62;100.00
19831;BME280;10076;52.008;4.708;2023-08-17T01:42:43;102103.34;;;20.53;100.00
19831;BME280;10076;52.008;4.708;2023-08-17T01:45:09;102107.00;;;20.71;100.00
19831;BME280;10076;52.008;4.708;2023-08-17T01:47:35;102105.75;;;20.56;100.00
19831;BME280;10076;52.008;4.708;2023-08-17T01:50:00;102105.31;;;20.70;100.00
19831;BME280;10076;52.008;4.708;2023-08-17T01:52:28;102093.88;;;20.49;100.00
19831;BME280;10076;52.008;4.708;2023-08-17T01:54:54;102094.56;;;20.51;100.00
19831;BME280;10076;52.008;4.708;2023-08-17T01:57:20;102092.31;;;20.37;100.00
19831;BME280;10076;52.008;4.708;2023-08-17T01:59:45;102100.63;;;20.25;100.00
19831;BME280;10076;52.008;4.708;2023-08-17T02:02:10;102094.00;;;20.19;100.00
19831;BME280;10076;52.008;4.708;2023-08-17T02:04:37;102097.63;;;20.09;100.00
19831;BME280;10076;52.008;4.708;2023-08-17T02:07:02;102096.81;;;20.18;100.00
19831;BME280;10076;52.008;4.708;2023-08-17T02:09:28;102097.38;;;20.21;100.00
19831;BME280;10076;52.008;4.708;2023-08-17T02:11:53;102096.66;;;20.19;100.00
19831;BME280;10076;52.008;4.708;2023-08-17T02:14:18;102098.78;;;20.16;100.00
19831;BME280;10076;52.008;4.708;2023-08-17T02:16:44;102092.66;;;20.05;100.00
19831;BME280;10076;52.008;4.708;2023-08-17T02:19:09;102091.72;;;20.15;100.00
19831;BME280;10076;52.008;4.708;2023-08-17T02:21:34;102091.44;;;20.09;100.00
19831;BME280;10076;52.008;4.708;2023-08-17T02:24:00;102091.56;;;19.98;100.00
19831;BME280;10076;52.008;4.708;2023-08-17T02:26:25;102084.25;;;19.79;100.00
19831;BME280;10076;52.008;4.708;2023-08-17T02:28:50;102085.75;;;19.93;100.00
19831;BME280;10076;52.008;4.708;2023-08-17T02:31:16;102084.75;;;19.94;100.00
19831;BME280;10076;52.008;4.708;2023-08-17T02:33:41;102077.28;;;19.97;100.00
19831;BME280;10076;52.008;4.708;2023-08-17T02:36:07;102084.28;;;19.89;100.00
19831;BME280;10076;52.008;4.708;2023-08-17T02:38:32;102073.63;;;19.98;100.00
19831;BME280;10076;52.008;4.708;2023-08-17T02:40:57;102078.41;;;19.95;100.00
19831;BME280;10076;52.008;4.708;2023-08-17T02:43:23;102083.34;;;19.99;100.00
19831;BME280;10076;52.008;4.708;2023-08-17T02:45:48;102084.19;;;20.00;100.00
19831;BME280;10076;52.008;4.708;2023-08-17T02:48:13;102075.22;;;20.19;100.00
19831;BME280;10076;52.008;4.708;2023-08-17T02:50:39;102082.28;;;20.20;100.00
19831;BME280;10076;52.008;4.708;2023-08-17T02:53:04;102084.34;;;19.98;100.00
19831;BME280;10076;52.008;4.708;2023-08-17T02:55:30;102087.16;;;19.97;100.00
19831;BME280;10076;52.008;4.708;2023-08-17T02:57:55;102081.88;;;19.86;100.00
19831;BME280;10076;52.008;4.708;2023-08-17T03:00:20;102080.28;;;20.04;100.00
19831;BME280;10076;52.008;4.708;2023-08-17T03:02:45;102080.38;;;20.02;100.00
19831;BME280;10076;52.008;4.708;2023-08-17T03:05:11;102089.44;;;20.01;100.00
19831;BME280;10076;52.008;4.708;2023-08-17T03:07:36;102086.06;;;20.09;100.00
19831;BME280;10076;52.008;4.708;2023-08-17T03:10:01;102086.88;;;20.00;100.00
19831;BME280;10076;52.008;4.708;2023-08-17T03:12:27;102086.06;;;20.09;100.00
19831;BME280;10076;52.008;4.708;2023-08-17T03:14:52;102083.22;;;20.01;100.00
19831;BME280;10076;52.008;4.708;2023-08-17T03:17:17;102082.66;;;20.07;100.00
19831;BME280;10076;52.008;4.708;2023-08-17T03:19:43;102078.00;;;19.99;100.00
19831;BME280;10076;52.008;4.708;2023-08-17T03:22:08;102077.84;;;20.01;100.00
19831;BME280;10076;52.008;4.708;2023-08-17T03:24:33;102073.69;;;19.87;100.00
19831;BME280;10076;52.008;4.708;2023-08-17T03:26:59;102081.34;;;19.92;100.00
19831;BME280;10076;52.008;4.708;2023-08-17T03:29:25;102070.88;;;19.89;100.00
19831;BME280;10076;52.008;4.708;2023-08-17T03:31:51;102076.34;;;19.78;100.00
19831;BME280;10076;52.008;4.708;2023-08-17T03:34:16;102069.72;;;19.72;100.00
19831;BME280;10076;52.008;4.708;2023-08-17T03:36:42;102072.53;;;19.80;100.00
19831;BME280;10076;52.008;4.708;2023-08-17T03:39:08;102077.06;;;19.80;100.00
19831;BME280;10076;52.008;4.708;2023-08-17T03:41:34;102071.28;;;19.75;100.00
19831;BME280;10076;52.008;4.708;2023-08-17T03:44:02;102077.72;;;19.93;100.00
19831;BME280;10076;52.008;4.708;2023-08-17T03:46:27;102067.66;;;19.95;100.00
19831;BME280;10076;52.008;4.708;2023-08-17T03:48:53;102066.13;;;20.02;100.00
19831;BME280;10076;52.008;4.708;2023-08-17T03:51:18;102061.34;;;19.96;100.00
19831;BME280;10076;52.008;4.708;2023-08-17T03:53:44;102061.84;;;19.90;100.00
19831;BME280;10076;52.008;4.708;2023-08-17T03:56:09;102058.66;;;19.96;100.00
19831;BME280;10076;52.008;4.708;2023-08-17T03:58:34;102067.94;;;19.92;100.00
19831;BME280;10076;52.008;4.708;2023-08-17T04:01:00;102068.75;;;19.92;100.00
19831;BME280;10076;52.008;4.708;2023-08-17T04:03:26;102073.56;;;19.89;100.00
19831;BME280;10076;52.008;4.708;2023-08-17T04:05:51;102064.09;;;19.85;100.00
19831;BME280;10076;52.008;4.708;2023-08-17T04:08:16;102069.66;;;19.93;100.00
19831;BME280;10076;52.008;4.708;2023-08-17T04:10:42;102066.22;;;19.91;100.00
19831;BME280;10076;52.008;4.708;2023-08-17T04:13:07;102071.78;;;19.99;100.00
19831;BME280;10076;52.008;4.708;2023-08-17T04:15:32;102073.78;;;20.25;100.00
19831;BME280;10076;52.008;4.708;2023-08-17T04:17:58;102077.56;;;19.94;100.00
19831;BME280;10076;52.008;4.708;2023-08-17T04:20:23;102073.63;;;19.98;100.00
19831;BME280;10076;52.008;4.708;2023-08-17T04:22:50;102073.91;;;20.05;100.00
19831;BME280;10076;52.008;4.708;2023-08-17T04:25:15;102075.72;;;19.95;100.00
19831;BME280;10076;52.008;4.708;2023-08-17T04:27:42;102072.56;;;19.90;100.00
19831;BME280;10076;52.008;4.708;2023-08-17T04:30:08;102082.97;;;20.13;100.00
19831;BME280;10076;52.008;4.708;2023-08-17T04:32:34;102073.66;;;20.17;100.00
19831;BME280;10076;52.008;4.708;2023-08-17T04:34:59;102081.09;;;19.95;100.00
19831;BME280;10076;52.008;4.708;2023-08-17T04:37:24;102084.19;;;20.00;100.00
19831;BME280;10076;52.008;4.708;2023-08-17T04:39:50;102085.16;;;19.89;100.00
19831;BME280;10076;52.008;4.708;2023-08-17T04:42:16;102085.47;;;19.96;100.00
19831;BME280;10076;52.008;4.708;2023-08-17T04:44:42;102077.50;;;19.85;100.00
19831;BME280;10076;52.008;4.708;2023-08-17T04:47:07;102087.31;;;19.95;100.00
19831;BME280;10076;52.008;4.708;2023-08-17T04:49:33;102086.09;;;19.79;100.00
19831;BME280;10076;52.008;4.708;2023-08-17T04:51:58;102080.44;;;19.82;100.00
19831;BME280;10076;52.008;4.708;2023-08-17T04:54:23;102085.91;;;20.01;100.00
19831;BME280;10076;52.008;4.708;2023-08-17T04:56:49;102078.28;;;20.06;100.00
19831;BME280;10076;52.008;4.708;2023-08-17T04:59:14;102074.88;;;19.94;100.00
19831;BME280;10076;52.008;4.708;2023-08-17T05:01:40;102075.88;;;20.03;100.00
19831;BME280;10076;52.008;4.708;2023-08-17T05:04:05;102071.06;;;19.97;100.00
19831;BME280;10076;52.008;4.708;2023-08-17T05:06:30;102062.34;;;20.04;100.00
19831;BME280;10076;52.008;4.708;2023-08-17T05:08:56;102054.16;;;20.15;100.00
19831;BME280;10076;52.008;4.708;2023-08-17T05:11:22;102054.72;;;20.18;100.00
19831;BME280;10076;52.008;4.708;2023-08-17T05:13:47;102052.44;;;20.05;100.00
19831;BME280;10076;52.008;4.708;2023-08-17T05:16:12;102053.00;;;20.08;100.00
19831;BME280;10076;52.008;4.708;2023-08-17T05:18:38;102053.19;;;20.16;100.00
19831;BME280;10076;52.008;4.708;2023-08-17T05:21:03;102054.13;;;20.06;100.00
19831;BME280;10076;52.008;4.708;2023-08-17T05:23:29;102054.56;;;20.11;100.00
19831;BME280;10076;52.008;4.708;2023-08-17T05:25:54;102061.97;;;20.27;100.00
19831;BME280;10076;52.008;4.708;2023-08-17T05:28:19;102071.41;;;20.41;100.00
19831;BME280;10076;52.008;4.708;2023-08-17T05:30:46;102066.19;;;20.20;100.00
19831;BME280;10076;52.008;4.708;2023-08-17T05:33:11;102065.75;;;20.34;100.00
19831;BME280;10076;52.008;4.708;2023-08-17T05:35:37;102073.69;;;20.36;100.00
19831;BME280;10076;52.008;4.708;2023-08-17T05:38:02;102070.84;;;20.28;100.00
19831;BME280;10076;52.008;4.708;2023-08-17T05:40:30;102078.75;;;20.39;100.00
19831;BME280;10076;52.008;4.708;2023-08-17T05:42:55;102081.00;;;20.34;100.00
19831;BME280;10076;52.008;4.708;2023-08-17T05:45:21;102082.25;;;20.39;100.00
19831;BME280;10076;52.008;4.708;2023-08-17T05:47:46;102081.59;;;20.47;100.00
19831;BME280;10076;52.008;4.708;2023-08-17T05:50:11;102076.78;;;20.50;100.00
19831;BME280;10076;52.008;4.708;2023-08-17T05:52:36;102071.69;;;20.57;100.00
19831;BME280;10076;52.008;4.708;2023-08-17T05:55:02;102070.13;;;20.54;100.00
19831;BME280;10076;52.008;4.708;2023-08-17T05:57:27;102076.22;;;20.75;100.00
19831;BME280;10076;52.008;4.708;2023-08-17T05:59:53;102077.63;;;20.51;100.00
19831;BME280;10076;52.008;4.708;2023-08-17T06:02:18;102080.47;;;20.49;100.00
19831;BME280;10076;52.008;4.708;2023-08-17T06:04:43;102083.00;;;20.60;100.00
19831;BME280;10076;52.008;4.708;2023-08-17T06:07:09;102093.72;;;20.51;100.00
19831;BME280;10076;52.008;4.708;2023-08-17T06:09:34;102095.28;;;20.63;100.00
19831;BME280;10076;52.008;4.708;2023-08-17T06:12:00;102089.75;;;20.74;100.00
19831;BME280;10076;52.008;4.708;2023-08-17T06:14:25;102082.00;;;20.71;100.00
19831;BME280;10076;52.008;4.708;2023-08-17T06:16:50;102090.63;;;20.74;100.00
19831;BME280;10076;52.008;4.708;2023-08-17T06:19:16;102086.38;;;20.90;100.00
19831;BME280;10076;52.008;4.708;2023-08-17T06:21:41;102093.19;;;20.85;100.00
19831;BME280;10076;52.008;4.708;2023-08-17T06:24:06;102096.84;;;20.93;100.00
19831;BME280;10076;52.008;4.708;2023-08-17T06:26:31;102096.69;;;20.95;100.00
19831;BME280;10076;52.008;4.708;2023-08-17T06:28:57;102101.75;;;21.07;100.00
19831;BME280;10076;52.008;4.708;2023-08-17T06:31:22;102108.13;;;21.06;100.00
19831;BME280;10076;52.008;4.708;2023-08-17T06:33:52;102100.38;;;20.94;100.00
19831;BME280;10076;52.008;4.708;2023-08-17T06:36:17;102103.94;;;20.85;100.00
19831;BME280;10076;52.008;4.708;2023-08-17T06:38:43;102100.78;;;20.99;100.00
19831;BME280;10076;52.008;4.708;2023-08-17T06:41:08;102099.06;;;21.07;100.00
19831;BME280;10076;52.008;4.708;2023-08-17T06:43:33;102093.25;;;21.21;100.00
19831;BME280;10076;52.008;4.708;2023-08-17T06:45:59;102096.16;;;21.37;100.00
19831;BME280;10076;52.008;4.708;2023-08-17T06:48:25;102097.25;;;21.63;100.00
19831;BME280;10076;52.008;4.708;2023-08-17T06:50:51;102090.03;;;21.81;100.00
19831;BME280;10076;52.008;4.708;2023-08-17T06:53:16;102087.50;;;21.79;100.00
19831;BME280;10076;52.008;4.708;2023-08-17T06:55:41;102088.97;;;21.74;100.00
19831;BME280;10076;52.008;4.708;2023-08-17T06:58:07;102094.38;;;21.91;100.00
19831;BME280;10076;52.008;4.708;2023-08-17T07:00:32;102090.28;;;22.14;100.00
19831;BME280;10076;52.008;4.708;2023-08-17T07:02:58;102092.97;;;22.41;100.00
19831;BME280;10076;52.008;4.708;2023-08-17T07:05:24;102101.56;;;22.44;100.00
19831;BME280;10076;52.008;4.708;2023-08-17T07:07:49;102106.03;;;22.53;100.00
19831;BME280;10076;52.008;4.708;2023-08-17T07:10:15;102101.81;;;22.51;100.00
19831;BME280;10076;52.008;4.708;2023-08-17T07:12:40;102103.97;;;22.47;100.00
19831;BME280;10076;52.008;4.708;2023-08-17T07:15:06;102107.41;;;22.57;100.00
19831;BME280;10076;52.008;4.708;2023-08-17T07:17:32;102103.88;;;22.74;100.00
19831;BME280;10076;52.008;4.708;2023-08-17T07:19:59;102106.72;;;22.90;100.00
19831;BME280;10076;52.008;4.708;2023-08-17T07:22:24;102108.25;;;22.93;100.00
19831;BME280;10076;52.008;4.708;2023-08-17T07:24:50;102106.84;;;22.89;100.00
19831;BME280;10076;52.008;4.708;2023-08-17T07:27:15;102103.00;;;23.08;100.00
19831;BME280;10076;52.008;4.708;2023-08-17T07:29:40;102109.41;;;23.07;100.00
19831;BME280;10076;52.008;4.708;2023-08-17T07:32:06;102119.28;;;23.24;100.00
19831;BME280;10076;52.008;4.708;2023-08-17T07:34:31;102113.25;;;23.30;100.00
19831;BME280;10076;52.008;4.708;2023-08-17T07:36:57;102112.97;;;23.33;100.00
19831;BME280;10076;52.008;4.708;2023-08-17T07:39:23;102108.06;;;23.11;100.00
19831;BME280;10076;52.008;4.708;2023-08-17T07:41:48;102107.75;;;23.14;100.00
19831;BME280;10076;52.008;4.708;2023-08-17T07:44:13;102114.00;;;23.15;100.00
19831;BME280;10076;52.008;4.708;2023-08-17T07:46:39;102119.88;;;23.10;100.00
19831;BME280;10076;52.008;4.708;2023-08-17T07:49:05;102107.03;;;23.04;100.00
19831;BME280;10076;52.008;4.708;2023-08-17T07:51:30;102105.78;;;23.16;100.00
19831;BME280;10076;52.008;4.708;2023-08-17T07:53:59;102102.09;;;23.25;100.00
19831;BME280;10076;52.008;4.708;2023-08-17T07:56:24;102099.88;;;23.46;100.00
19831;BME280;10076;52.008;4.708;2023-08-17T07:58:50;102104.72;;;23.43;100.00
19831;BME280;10076;52.008;4.708;2023-08-17T08:01:15;102103.19;;;23.40;100.00
19831;BME280;10076;52.008;4.708;2023-08-17T08:03:40;102095.88;;;23.50;100.00
19831;BME280;10076;52.008;4.708;2023-08-17T08:06:06;102096.69;;;23.51;100.00
19831;BME280;10076;52.008;4.708;2023-08-17T08:08:31;102103.09;;;23.75;100.00
19831;BME280;10076;52.008;4.708;2023-08-17T08:10:56;102100.47;;;23.99;100.00
19831;BME280;10076;52.008;4.708;2023-08-17T08:13:22;102110.31;;;24.08;100.00
19831;BME280;10076;52.008;4.708;2023-08-17T08:15:47;102112.03;;;24.25;100.00
19831;BME280;10076;52.008;4.708;2023-08-17T08:18:12;102112.72;;;24.35;100.00
19831;BME280;10076;52.008;4.708;2023-08-17T08:20:38;102110.09;;;24.50;100.00
19831;BME280;10076;52.008;4.708;2023-08-17T08:23:03;102101.13;;;24.42;100.00
19831;BME280;10076;52.008;4.708;2023-08-17T08:25:29;102099.75;;;24.38;100.00
19831;BME280;10076;52.008;4.708;2023-08-17T08:27:54;102093.75;;;24.52;100.00
19831;BME280;10076;52.008;4.708;2023-08-17T08:30:19;102090.50;;;24.56;100.00
19831;BME280;10076;52.008;4.708;2023-08-17T08:32:45;102092.72;;;24.61;100.00
19831;BME280;10076;52.008;4.708;2023-08-17T08:35:10;102083.09;;;24.74;100.00
19831;BME280;10076;52.008;4.708;2023-08-17T08:37:35;102096.63;;;24.66;100.00
19831;BME280;10076;52.008;4.708;2023-08-17T08:40:01;102086.81;;;24.81;100.00
19831;BME280;10076;52.008;4.708;2023-08-17T08:42:26;102092.03;;;24.67;100.00
19831;BME280;10076;52.008;4.708;2023-08-17T08:44:52;102089.66;;;24.64;100.00
19831;BME280;10076;52.008;4.708;2023-08-17T08:47:17;102082.75;;;24.93;100.00
19831;BME280;10076;52.008;4.708;2023-08-17T08:49:57;102070.44;;;25.14;100.00
19831;BME280;10076;52.008;4.708;2023-08-17T08:52:31;102080.06;;;25.09;100.00
19831;BME280;10076;52.008;4.708;2023-08-17T08:54:58;102071.09;;;25.16;100.00
19831;BME280;10076;52.008;4.708;2023-08-17T08:57:27;102073.41;;;25.27;100.00
19831;BME280;10076;52.008;4.708;2023-08-17T08:59:53;102074.72;;;25.55;100.00
19831;BME280;10076;52.008;4.708;2023-08-17T09:02:19;102083.66;;;25.64;100.00
19831;BME280;10076;52.008;4.708;2023-08-17T09:04:44;102081.00;;;25.94;100.00
19831;BME280;10076;52.008;4.708;2023-08-17T09:07:11;102088.38;;;26.08;100.00
19831;BME280;10076;52.008;4.708;2023-08-17T09:09:37;102079.78;;;26.04;100.00
19831;BME280;10076;52.008;4.708;2023-08-17T09:12:04;102076.16;;;26.42;100.00
19831;BME280;10076;52.008;4.708;2023-08-17T09:14:29;102078.19;;;26.85;100.00
19831;BME280;10076;52.008;4.708;2023-08-17T09:16:55;102069.75;;;27.17;100.00
19831;BME280;10076;52.008;4.708;2023-08-17T09:19:23;102071.00;;;27.28;100.00
19831;BME280;10076;52.008;4.708;2023-08-17T09:21:49;102070.78;;;27.16;100.00
19831;BME280;10076;52.008;4.708;2023-08-17T09:24:14;102071.31;;;26.97;100.00
19831;BME280;10076;52.008;4.708;2023-08-17T09:26:40;102071.16;;;27.13;100.00
19831;BME280;10076;52.008;4.708;2023-08-17T09:29:17;102062.22;;;27.26;100.00
19831;BME280;10076;52.008;4.708;2023-08-17T09:31:43;102065.38;;;27.44;100.00
19831;BME280;10076;52.008;4.708;2023-08-17T09:34:08;102069.53;;;27.69;100.00
19831;BME280;10076;52.008;4.708;2023-08-17T09:36:35;102057.22;;;27.88;100.00
19831;BME280;10076;52.008;4.708;2023-08-17T09:39:00;102066.44;;;28.22;100.00
19831;BME280;10076;52.008;4.708;2023-08-17T09:41:26;102062.72;;;28.23;100.00
19831;BME280;10076;52.008;4.708;2023-08-17T09:43:54;102059.69;;;28.32;100.00
19831;BME280;10076;52.008;4.708;2023-08-17T09:46:19;102059.47;;;29.24;100.00
19831;BME280;10076;52.008;4.708;2023-08-17T09:48:45;102053.91;;;30.25;100.00
19831;BME280;10076;52.008;4.708;2023-08-17T09:51:10;102058.16;;;31.44;100.00
19831;BME280;10076;52.008;4.708;2023-08-17T09:53:39;102054.25;;;31.83;100.00
19831;BME280;10076;52.008;4.708;2023-08-17T09:56:05;102052.06;;;31.61;100.00
19831;BME280;10076;52.008;4.708;2023-08-17T09:58:32;102051.06;;;31.30;100.00
19831;BME280;10076;52.008;4.708;2023-08-17T10:00:58;102042.47;;;30.94;100.00
19831;BME280;10076;52.008;4.708;2023-08-17T10:03:29;102040.22;;;31.80;100.00
19831;BME280;10076;52.008;4.708;2023-08-17T10:06:09;102050.28;;;33.15;100.00
19831;BME280;10076;52.008;4.708;2023-08-17T10:08:43;102035.81;;;33.08;100.00
19831;BME280;10076;52.008;4.708;2023-08-17T10:11:12;102045.56;;;33.40;100.00
19831;BME280;10076;52.008;4.708;2023-08-17T10:13:42;102043.13;;;34.04;98.81
19831;BME280;10076;52.008;4.708;2023-08-17T10:18:48;102043.31;;;35.24;94.16
19831;BME280;10076;52.008;4.708;2023-08-17T10:21:23;102036.13;;;36.08;85.91
19831;BME280;10076;52.008;4.708;2023-08-17T10:23:52;102041.75;;;35.63;85.99
19831;BME280;10076;52.008;4.708;2023-08-17T10:26:18;102033.84;;;35.66;85.25
19831;BME280;10076;52.008;4.708;2023-08-17T10:28:45;102028.47;;;35.60;87.68
19831;BME280;10076;52.008;4.708;2023-08-17T10:31:11;102021.19;;;34.85;87.90
19831;BME280;10076;52.008;4.708;2023-08-17T10:33:36;102010.28;;;34.15;94.83
19831;BME280;10076;52.008;4.708;2023-08-17T10:36:03;102029.75;;;33.42;99.54
19831;BME280;10076;52.008;4.708;2023-08-17T10:38:30;102030.56;;;33.25;97.91
19831;BME280;10076;52.008;4.708;2023-08-17T10:41:15;102031.53;;;32.33;100.00
19831;BME280;10076;52.008;4.708;2023-08-17T10:43:53;102033.84;;;33.15;100.00
19831;BME280;10076;52.008;4.708;2023-08-17T10:46:19;102032.53;;;35.69;89.66
19831;BME280;10076;52.008;4.708;2023-08-17T10:48:44;102035.47;;;36.46;80.68
19831;BME280;10076;52.008;4.708;2023-08-17T10:51:10;102038.41;;;36.39;82.50
19831;BME280;10076;52.008;4.708;2023-08-17T10:53:39;102028.41;;;35.83;80.92
19831;BME280;10076;52.008;4.708;2023-08-17T10:56:11;102028.66;;;35.81;82.29
19831;BME280;10076;52.008;4.708;2023-08-17T10:58:36;102039.50;;;35.99;80.89
19831;BME280;10076;52.008;4.708;2023-08-17T11:01:02;102035.00;;;35.82;82.32
19831;BME280;10076;52.008;4.708;2023-08-17T11:03:27;102033.75;;;35.27;82.91
19831;BME280;10076;52.008;4.708;2023-08-17T11:05:54;102025.25;;;34.71;87.86
19831;BME280;10076;52.008;4.708;2023-08-17T11:08:39;102023.25;;;34.49;90.35
19831;BME280;10076;52.008;4.708;2023-08-17T11:11:13;102021.03;;;33.70;89.36
19831;BME280;10076;52.008;4.708;2023-08-17T11:13:40;102013.53;;;34.24;92.44
19831;BME280;10076;52.008;4.708;2023-08-17T11:16:07;102008.41;;;35.87;85.06
19831;BME280;10076;52.008;4.708;2023-08-17T11:18:34;102012.41;;;38.19;75.71
19831;BME280;10076;52.008;4.708;2023-08-17T11:21:01;102010.03;;;38.27;69.96
19831;BME280;10076;52.008;4.708;2023-08-17T11:23:29;102014.47;;;38.60;68.43
19831;BME280;10076;52.008;4.708;2023-08-17T11:25:55;102024.63;;;39.68;66.05
19831;BME280;10076;52.008;4.708;2023-08-17T11:28:21;102025.19;;;39.75;61.76
19831;BME280;10076;52.008;4.708;2023-08-17T11:30:56;102022.81;;;39.01;61.46
19831;BME280;10076;52.008;4.708;2023-08-17T11:33:21;102011.78;;;37.91;65.77
19831;BME280;10076;52.008;4.708;2023-08-17T11:35:47;102019.38;;;38.00;65.92
19831;BME280;10076;52.008;4.708;2023-08-17T11:38:15;102018.50;;;38.21;63.00
19831;BME280;10076;52.008;4.708;2023-08-17T11:40:40;102015.56;;;37.63;65.96
19831;BME280;10076;52.008;4.708;2023-08-17T11:43:05;102017.19;;;36.72;70.19
19831;BME280;10076;52.008;4.708;2023-08-17T11:45:31;102012.22;;;35.58;74.33
19831;BME280;10076;52.008;4.708;2023-08-17T11:47:57;102006.38;;;34.23;84.00
19831;BME280;10076;52.008;4.708;2023-08-17T11:50:24;102008.91;;;32.99;93.16
19831;BME280;10076;52.008;4.708;2023-08-17T11:52:49;102008.53;;;32.71;95.64
19831;BME280;10076;52.008;4.708;2023-08-17T11:55:16;102003.00;;;32.47;100.00
19831;BME280;10076;52.008;4.708;2023-08-17T11:57:42;101997.91;;;32.26;100.00
19831;BME280;10076;52.008;4.708;2023-08-17T12:00:08;102000.56;;;32.02;100.00
19831;BME280;10076;52.008;4.708;2023-08-17T12:02:35;101998.63;;;31.71;100.00
19831;BME280;10076;52.008;4.708;2023-08-17T12:05:03;101994.28;;;31.45;100.00
19831;BME280;10076;52.008;4.708;2023-08-17T12:07:31;101995.81;;;31.28;100.00
19831;BME280;10076;52.008;4.708;2023-08-17T12:09:57;101996.69;;;31.09;100.00
19831;BME280;10076;52.008;4.708;2023-08-17T12:12:23;101988.28;;;30.91;100.00
19831;BME280;10076;52.008;4.708;2023-08-17T12:14:49;101996.31;;;30.73;100.00
19831;BME280;10076;52.008;4.708;2023-08-17T12:17:17;101996.31;;;30.73;100.00
19831;BME280;10076;52.008;4.708;2023-08-17T12:19:43;101995.47;;;30.53;100.00
19831;BME280;10076;52.008;4.708;2023-08-17T12:22:09;101988.78;;;29.83;100.00
19831;BME280;10076;52.008;4.708;2023-08-17T12:24:35;101988.63;;;29.91;100.00
19831;BME280;10076;52.008;4.708;2023-08-17T12:27:02;101983.63;;;30.14;100.00
19831;BME280;10076;52.008;4.708;2023-08-17T12:29:28;101991.38;;;29.98;100.00
19831;BME280;10076;52.008;4.708;2023-08-17T12:31:56;101992.44;;;30.03;100.00
19831;BME280;10076;52.008;4.708;2023-08-17T12:34:22;101983.13;;;29.85;100.00
19831;BME280;10076;52.008;4.708;2023-08-17T12:36:48;101984.97;;;29.71;100.00
19831;BME280;10076;52.008;4.708;2023-08-17T12:39:14;101988.47;;;29.59;100.00
19831;BME280;10076;52.008;4.708;2023-08-17T12:41:39;101985.97;;;29.64;100.00